Time;durP1;ratioP1;P1;durP2;ratioP2;P2;SDS_P1;SDS_P2;PMS_P1;PMS_P2;Temp;Humidity;BMP_temperature;BMP_pressure;BME280_temperature;BME280_humidity;BME280_pressure;Samples;Min_cycle;Max_cycle;Signal;HPM_P1;HPM_P2
2022/06/30 00:00:37;;;;;;;14.32;7.50;;;17.60;99.90;;;;;;5079464;28;20051;-59
2022/06/30 00:03:02;;;;;;;10.30;7.40;;;17.60;99.90;;;;;;5092320;28;20024;-59
2022/06/30 00:05:28;;;;;;;13.45;7.38;;;17.60;99.90;;;;;;5092631;28;20111;-60
2022/06/30 00:07:54;;;;;;;15.93;7.38;;;17.50;99.90;;;;;;5092616;28;20028;-58
2022/06/30 00:10:21;;;;;;;9.57;6.35;;;17.40;99.90;;;;;;5092342;28;20028;-60
2022/06/30 00:12:46;;;;;;;11.15;8.07;;;17.40;99.90;;;;;;5090282;28;20597;-58
2022/06/30 00:15:12;;;;;;;17.38;7.60;;;17.30;99.90;;;;;;5072078;28;20082;-60
2022/06/30 00:17:37;;;;;;;7.90;6.90;;;17.30;99.90;;;;;;5072158;28;20028;-60
2022/06/30 00:20:04;;;;;;;16.10;7.82;;;17.40;99.90;;;;;;5072115;28;20475;-59
2022/06/30 00:22:29;;;;;;;10.90;7.47;;;17.30;99.90;;;;;;5071684;28;20025;-59
2022/06/30 00:24:55;;;;;;;10.13;7.13;;;17.30;99.90;;;;;;5071164;28;20028;-57
2022/06/30 00:27:21;;;;;;;9.77;6.38;;;17.20;99.90;;;;;;5071772;28;20441;-60
2022/06/30 00:29:46;;;;;;;16.50;7.57;;;17.20;99.90;;;;;;5091732;28;20115;-60
2022/06/30 00:32:12;;;;;;;10.50;6.65;;;17.30;99.90;;;;;;5086900;28;20082;-60
2022/06/30 00:34:38;;;;;;;9.05;6.90;;;17.20;99.90;;;;;;5071540;28;20062;-60
2022/06/30 00:37:03;;;;;;;11.93;7.90;;;17.20;99.90;;;;;;5071850;28;20023;-60
2022/06/30 00:39:29;;;;;;;11.32;7.22;;;17.20;99.90;;;;;;5071583;28;20115;-60
2022/06/30 00:41:55;;;;;;;14.82;7.85;;;17.20;99.90;;;;;;5076247;28;20070;-60
2022/06/30 00:44:21;;;;;;;10.77;8.15;;;17.20;99.90;;;;;;5091824;28;20031;-60
2022/06/30 00:46:47;;;;;;;11.80;8.07;;;17.20;99.90;;;;;;5091868;28;20107;-60
2022/06/30 00:49:13;;;;;;;13.27;8.45;;;17.20;99.90;;;;;;5091712;28;20107;-60
2022/06/30 00:51:39;;;;;;;12.77;8.23;;;17.20;99.90;;;;;;5091700;28;20031;-59
2022/06/30 00:54:06;;;;;;;12.77;9.27;;;17.10;99.90;;;;;;5089815;28;20028;-59
2022/06/30 00:56:33;;;;;;;15.80;9.60;;;17.10;99.90;;;;;;5076962;28;20044;-59
2022/06/30 00:59:04;;;;;;;13.18;9.48;;;17.10;99.90;;;;;;5082792;28;20032;-59
2022/06/30 01:01:31;;;;;;;10.20;9.15;;;17.10;99.90;;;;;;5091513;28;20028;-59
2022/06/30 01:03:58;;;;;;;13.13;8.48;;;17.10;99.90;;;;;;5091566;28;20020;-57
2022/06/30 01:06:24;;;;;;;16.92;9.52;;;17.10;99.90;;;;;;5091455;28;20046;-59
2022/06/30 01:08:50;;;;;;;15.10;8.50;;;17.00;99.90;;;;;;5091239;28;20036;-59
2022/06/30 01:14:03;;;;;;;10.93;8.65;;;17.10;99.90;;;;;;5091328;28;20119;-59
2022/06/30 01:16:30;;;;;;;13.20;8.70;;;17.20;99.90;;;;;;5071121;28;20544;-60
2022/06/30 01:18:55;;;;;;;16.38;8.90;;;17.10;99.90;;;;;;5071506;28;20096;-59
2022/06/30 01:21:21;;;;;;;10.48;8.98;;;17.10;99.90;;;;;;5071213;28;20435;-59
2022/06/30 01:23:46;;;;;;;15.40;9.13;;;17.10;99.90;;;;;;5071605;28;20024;-58
2022/06/30 01:26:12;;;;;;;14.55;8.73;;;17.10;99.90;;;;;;5071633;28;20497;-59
2022/06/30 01:28:38;;;;;;;11.50;8.70;;;17.10;99.90;;;;;;5072327;28;20540;-59
2022/06/30 01:31:03;;;;;;;13.25;8.52;;;17.10;99.90;;;;;;5071422;28;20032;-59
2022/06/30 01:33:29;;;;;;;12.85;9.40;;;17.00;99.90;;;;;;5071216;28;20385;-60
2022/06/30 01:35:56;;;;;;;9.52;8.52;;;16.90;99.90;;;;;;5072345;28;20438;-59
2022/06/30 01:38:22;;;;;;;13.15;9.68;;;16.90;99.90;;;;;;5077780;28;20112;-59
2022/06/30 01:40:48;;;;;;;14.57;9.10;;;17.00;99.90;;;;;;5078098;28;20024;-59
2022/06/30 01:43:14;;;;;;;12.07;9.07;;;16.90;99.90;;;;;;5096051;28;20031;-60
2022/06/30 01:45:40;;;;;;;14.52;9.68;;;17.00;99.90;;;;;;5098102;28;20032;-58
2022/06/30 01:48:07;;;;;;;12.60;9.10;;;17.00;99.90;;;;;;5098187;28;20417;-57
2022/06/30 01:50:34;;;;;;;12.00;8.98;;;17.00;99.90;;;;;;5098236;28;20035;-58
2022/06/30 01:53:00;;;;;;;13.40;9.60;;;17.00;99.90;;;;;;5087474;28;20107;-57
2022/06/30 01:55:26;;;;;;;16.10;9.98;;;17.10;99.90;;;;;;5078202;28;20536;-60
2022/06/30 01:57:52;;;;;;;14.20;9.90;;;17.10;99.90;;;;;;5078037;28;20131;-59
2022/06/30 02:00:21;;;;;;;14.25;9.63;;;17.00;99.90;;;;;;5078909;28;20095;-59
2022/06/30 02:02:48;;;;;;;13.13;9.70;;;17.00;99.90;;;;;;5077496;28;20048;-57
2022/06/30 02:05:14;;;;;;;15.52;10.57;;;17.00;99.90;;;;;;5077687;28;20021;-59
2022/06/30 02:07:40;;;;;;;17.45;10.75;;;16.90;99.90;;;;;;5076481;28;20030;-58
2022/06/30 02:10:08;;;;;;;18.20;11.75;;;16.70;99.90;;;;;;5091322;28;20107;-59
2022/06/30 02:12:46;;;;;;;17.35;11.25;;;16.70;99.90;;;;;;5097651;28;20028;-60
2022/06/30 02:15:24;;;;;;;17.40;10.73;;;16.70;99.90;;;;;;5098049;28;20101;-60
2022/06/30 02:17:52;;;;;;;13.15;9.75;;;16.80;99.90;;;;;;5097926;28;20026;-60
2022/06/30 02:20:23;;;;;;;13.57;10.68;;;16.80;99.90;;;;;;5093773;28;20044;-59
2022/06/30 02:22:51;;;;;;;15.23;11.25;;;16.80;99.90;;;;;;5077335;28;20356;-60
2022/06/30 02:25:17;;;;;;;19.00;11.55;;;16.80;99.90;;;;;;5077725;28;20033;-60
2022/06/30 02:27:43;;;;;;;18.67;11.40;;;16.80;99.90;;;;;;5077494;28;20441;-58
2022/06/30 02:30:09;;;;;;;16.13;11.68;;;16.90;99.90;;;;;;5077521;28;20540;-60
2022/06/30 02:32:35;;;;;;;17.65;12.63;;;16.80;99.90;;;;;;5077245;28;20517;-60
2022/06/30 02:35:01;;;;;;;18.65;11.63;;;16.70;99.90;;;;;;5083624;28;20028;-60
2022/06/30 02:37:27;;;;;;;16.02;10.88;;;16.70;99.90;;;;;;5077628;28;20024;-60
2022/06/30 02:39:52;;;;;;;13.73;10.98;;;16.80;99.90;;;;;;5077209;28;20032;-60
2022/06/30 02:42:18;;;;;;;16.15;11.68;;;16.80;99.90;;;;;;5077117;28;20059;-60
2022/06/30 02:44:43;;;;;;;12.75;9.80;;;16.80;99.90;;;;;;5077441;28;20028;-60
2022/06/30 02:47:09;;;;;;;16.15;10.18;;;16.90;99.90;;;;;;5077233;28;20021;-59
2022/06/30 02:49:37;;;;;;;14.70;9.80;;;16.90;99.90;;;;;;5075852;28;20037;-58
2022/06/30 02:52:03;;;;;;;12.93;9.27;;;16.80;99.90;;;;;;5094169;28;20020;-60
2022/06/30 02:54:28;;;;;;;12.50;9.57;;;16.90;99.90;;;;;;5092663;28;20394;-60
2022/06/30 02:56:54;;;;;;;17.88;10.35;;;16.80;99.90;;;;;;5094271;28;20028;-60
2022/06/30 02:59:19;;;;;;;13.52;10.45;;;16.80;99.90;;;;;;5094199;28;20060;-58
2022/06/30 03:01:45;;;;;;;11.38;9.43;;;16.80;99.90;;;;;;5094172;28;20054;-60
2022/06/30 03:04:10;;;;;;;17.92;10.05;;;16.60;99.90;;;;;;5094201;28;20028;-59
2022/06/30 03:06:36;;;;;;;13.63;9.90;;;16.50;99.90;;;;;;5094262;28;20032;-57
2022/06/30 03:09:03;;;;;;;14.23;10.73;;;16.50;99.90;;;;;;5084315;28;20478;-60
2022/06/30 03:11:28;;;;;;;13.98;9.70;;;16.50;99.90;;;;;;5073540;28;20383;-57
2022/06/30 03:13:54;;;;;;;16.15;9.82;;;16.60;99.90;;;;;;5073172;28;20028;-59
2022/06/30 03:16:20;;;;;;;13.02;10.00;;;16.50;99.90;;;;;;5073734;28;20028;-60
2022/06/30 03:18:45;;;;;;;12.82;9.73;;;16.40;99.90;;;;;;5073859;28;20021;-59
2022/06/30 03:21:12;;;;;;;13.20;9.85;;;16.50;99.90;;;;;;5073682;28;20475;-59
2022/06/30 03:23:38;;;;;;;15.38;10.82;;;16.50;99.90;;;;;;5081574;28;20063;-60
2022/06/30 03:26:04;;;;;;;12.45;9.57;;;16.60;99.90;;;;;;5093803;28;20124;-60
2022/06/30 03:28:30;;;;;;;13.75;10.60;;;16.60;99.90;;;;;;5093712;28;20059;-59
2022/06/30 03:30:56;;;;;;;15.32;10.80;;;16.50;99.90;;;;;;5093788;28;20016;-60
2022/06/30 03:33:21;;;;;;;15.15;11.55;;;16.60;99.90;;;;;;5093323;28;20020;-60
2022/06/30 03:35:47;;;;;;;16.92;11.20;;;16.60;99.90;;;;;;5093527;28;20516;-60
2022/06/30 03:38:14;;;;;;;19.95;12.75;;;16.50;99.90;;;;;;5079312;28;20083;-60
2022/06/30 03:40:40;;;;;;;17.48;12.15;;;16.50;99.90;;;;;;5103491;22;20068;-62
2022/06/30 03:43:07;;;;;;;19.52;12.57;;;16.50;99.90;;;;;;5090721;28;20047;-62
2022/06/30 03:45:33;;;;;;;21.95;12.55;;;16.40;99.90;;;;;;5091612;28;20466;-62
2022/06/30 03:48:03;;;;;;;21.90;13.40;;;16.40;99.90;;;;;;5091586;28;20035;-62
2022/06/30 03:50:30;;;;;;;20.77;12.88;;;16.50;99.90;;;;;;5092896;28;20043;-63
2022/06/30 03:52:56;;;;;;;23.10;11.68;;;16.40;99.90;;;;;;5105090;28;20020;-63
2022/06/30 03:55:22;;;;;;;15.23;11.43;;;16.50;99.90;;;;;;5112928;28;20392;-61
2022/06/30 03:57:48;;;;;;;19.05;11.50;;;16.40;99.90;;;;;;5100147;28;20099;-63
2022/06/30 04:00:14;;;;;;;17.00;12.35;;;16.50;99.90;;;;;;5091401;28;20105;-63
2022/06/30 04:02:40;;;;;;;16.83;11.43;;;16.50;99.90;;;;;;5092300;28;20016;-62
2022/06/30 04:05:06;;;;;;;15.18;11.50;;;16.50;99.90;;;;;;5092485;28;20036;-63
2022/06/30 04:07:31;;;;;;;16.08;12.05;;;16.50;99.90;;;;;;5111865;28;20023;-62
2022/06/30 04:09:57;;;;;;;15.23;11.10;;;16.50;99.90;;;;;;5112565;28;20030;-63
2022/06/30 04:12:23;;;;;;;21.48;11.77;;;16.60;99.90;;;;;;5112626;28;20028;-63
2022/06/30 04:14:48;;;;;;;15.70;12.25;;;16.60;99.90;;;;;;5113172;28;20038;-63
2022/06/30 04:17:14;;;;;;;19.80;12.07;;;16.60;99.90;;;;;;5112777;28;20028;-63
2022/06/30 04:19:39;;;;;;;15.18;12.60;;;16.60;99.90;;;;;;5112745;28;20489;-63
2022/06/30 04:22:05;;;;;;;21.40;12.07;;;16.60;99.90;;;;;;5094475;28;20111;-63
2022/06/30 04:24:31;;;;;;;21.30;12.70;;;16.70;99.90;;;;;;5092164;28;20028;-63
2022/06/30 04:26:57;;;;;;;18.40;12.07;;;16.70;99.90;;;;;;5092052;28;20028;-63
2022/06/30 04:29:22;;;;;;;16.65;10.95;;;16.80;99.90;;;;;;5091947;28;20036;-63
2022/06/30 04:34:32;;;;;;;14.65;11.55;;;16.80;99.90;;;;;;5091559;28;20546;-63
2022/06/30 04:36:57;;;;;;;16.05;10.98;;;16.90;99.90;;;;;;5091948;28;20107;-63
2022/06/30 04:39:23;;;;;;;20.65;11.90;;;17.00;99.90;;;;;;5091526;28;20050;-63
2022/06/30 04:41:48;;;;;;;16.48;12.00;;;17.00;99.90;;;;;;5091597;28;20531;-63
2022/06/30 04:44:14;;;;;;;20.70;12.45;;;17.00;99.90;;;;;;5091906;28;20020;-64
2022/06/30 04:46:40;;;;;;;19.13;12.95;;;17.10;99.90;;;;;;5091690;28;20024;-64
2022/06/30 04:49:05;;;;;;;17.30;12.20;;;17.20;99.90;;;;;;5092918;28;20070;-64
2022/06/30 04:51:31;;;;;;;23.58;13.02;;;17.20;99.90;;;;;;5091472;28;20426;-64
2022/06/30 04:53:56;;;;;;;18.05;12.25;;;17.20;99.90;;;;;;5092908;28;20028;-64
2022/06/30 04:56:22;;;;;;;16.15;11.18;;;17.20;99.90;;;;;;5092352;28;20043;-64
2022/06/30 04:58:47;;;;;;;20.25;12.45;;;17.30;99.90;;;;;;5104521;28;20036;-64
2022/06/30 05:01:14;;;;;;;15.60;11.43;;;17.30;99.90;;;;;;5111620;28;20024;-63
2022/06/30 05:03:39;;;;;;;20.67;12.95;;;17.40;99.90;;;;;;5111852;28;20124;-64
2022/06/30 05:06:05;;;;;;;16.42;11.93;;;17.50;99.90;;;;;;5112008;28;20024;-64
2022/06/30 05:08:32;;;;;;;23.02;11.60;;;17.50;99.90;;;;;;5107450;28;20020;-64
2022/06/30 05:10:58;;;;;;;19.30;11.27;;;17.50;99.90;;;;;;5090387;28;20043;-64
2022/06/30 05:13:24;;;;;;;15.20;11.05;;;17.60;99.90;;;;;;5091057;28;20111;-64
2022/06/30 05:15:49;;;;;;;15.38;10.50;;;17.60;99.90;;;;;;5106827;28;20294;-63
2022/06/30 05:18:15;;;;;;;18.95;11.55;;;17.70;99.90;;;;;;5111754;28;20043;-65
2022/06/30 05:20:41;;;;;;;14.70;10.60;;;17.70;99.90;;;;;;5111583;28;20057;-65
2022/06/30 05:23:09;;;;;;;12.68;10.13;;;17.80;99.90;;;;;;5111270;28;20028;-64
2022/06/30 05:28:21;;;;;;;16.00;10.25;;;17.90;99.90;;;;;;5111887;28;20031;-64
2022/06/30 05:30:50;;;;;;;15.85;10.73;;;18.00;99.90;;;;;;5111635;28;20031;-64
2022/06/30 05:33:19;;;;;;;13.88;11.43;;;18.10;99.90;;;;;;5111019;28;20094;-64
2022/06/30 05:35:50;;;;;;;16.02;10.93;;;18.10;99.90;;;;;;5093607;28;20020;-64
2022/06/30 05:38:16;;;;;;;13.32;10.10;;;18.20;99.90;;;;;;5091063;28;20024;-64
2022/06/30 05:40:42;;;;;;;14.15;10.13;;;18.30;99.90;;;;;;5091437;28;20222;-63
2022/06/30 05:43:11;;;;;;;13.27;9.02;;;18.40;99.90;;;;;;5090661;28;20024;-63
2022/06/30 05:45:37;;;;;;;15.63;10.45;;;18.40;99.90;;;;;;5089103;28;20027;-63
2022/06/30 05:48:03;;;;;;;12.77;9.35;;;18.50;99.90;;;;;;5091038;28;20016;-63
2022/06/30 05:50:30;;;;;;;13.57;9.63;;;18.50;99.90;;;;;;5090937;28;20399;-63
2022/06/30 05:52:56;;;;;;;15.50;11.30;;;18.60;99.90;;;;;;5072531;28;20027;-62
2022/06/30 05:55:21;;;;;;;16.88;10.93;;;18.70;99.90;;;;;;5090751;28;20024;-63
2022/06/30 05:57:55;;;;;;;11.77;10.07;;;18.70;99.90;;;;;;5090772;28;20470;-64
2022/06/30 06:00:23;;;;;;;16.33;11.45;;;18.80;99.90;;;;;;5090842;28;20024;-64
2022/06/30 06:02:49;;;;;;;15.00;11.13;;;18.90;99.90;;;;;;5090660;28;20023;-64
2022/06/30 06:05:15;;;;;;;13.98;10.63;;;19.00;99.90;;;;;;5090811;28;20042;-64
2022/06/30 06:07:42;;;;;;;14.48;10.75;;;19.10;99.90;;;;;;5090584;28;20493;-64
2022/06/30 06:10:08;;;;;;;15.20;11.68;;;19.20;99.90;;;;;;5090528;28;20096;-63
2022/06/30 06:12:34;;;;;;;15.65;11.20;;;19.30;99.90;;;;;;5090419;28;20052;-64
2022/06/30 06:14:59;;;;;;;16.30;11.00;;;19.40;99.90;;;;;;5090625;28;20477;-64
2022/06/30 06:17:25;;;;;;;21.38;11.38;;;19.50;99.90;;;;;;5090736;28;20020;-64
2022/06/30 06:19:50;;;;;;;14.30;9.90;;;19.60;99.90;;;;;;5089914;28;20101;-64
2022/06/30 06:22:16;;;;;;;13.35;10.00;;;19.60;99.90;;;;;;5090136;28;20356;-64
2022/06/30 06:24:41;;;;;;;14.48;10.18;;;19.70;99.90;;;;;;5094053;28;20034;-64
2022/06/30 06:27:07;;;;;;;17.73;11.38;;;19.80;99.90;;;;;;5094180;28;20024;-64
2022/06/30 06:29:32;;;;;;;15.18;10.98;;;19.90;99.90;;;;;;5094350;28;20466;-64
2022/06/30 06:31:58;;;;;;;18.45;10.63;;;20.00;99.90;;;;;;5094324;28;20461;-64
2022/06/30 06:34:23;;;;;;;12.60;10.40;;;20.10;99.90;;;;;;5094343;28;20029;-64
2022/06/30 06:36:49;;;;;;;15.23;10.95;;;20.20;99.90;;;;;;5094061;28;20028;-64
2022/06/30 06:39:15;;;;;;;17.85;9.88;;;20.30;99.90;;;;;;5094070;28;20044;-64
2022/06/30 06:41:40;;;;;;;15.93;9.57;;;20.30;99.90;;;;;;5095456;28;20416;-64
2022/06/30 06:44:06;;;;;;;12.18;9.40;;;20.40;99.90;;;;;;5095229;28;20020;-64
2022/06/30 06:46:32;;;;;;;13.00;9.00;;;20.50;99.90;;;;;;5094216;28;20017;-63
2022/06/30 06:49:07;;;;;;;12.15;8.75;;;20.50;99.90;;;;;;5093982;28;20103;-64
2022/06/30 06:51:34;;;;;;;10.98;8.95;;;20.60;99.90;;;;;;5093643;28;20035;-64
2022/06/30 06:54:00;;;;;;;11.27;8.07;;;20.70;99.90;;;;;;5093992;28;20020;-64
2022/06/30 06:56:27;;;;;;;13.35;9.25;;;20.80;99.90;;;;;;5111977;28;20027;-63
2022/06/30 06:58:52;;;;;;;12.25;8.80;;;20.80;99.90;;;;;;5114243;28;20015;-64
2022/06/30 07:01:18;;;;;;;11.00;7.85;;;20.90;99.90;;;;;;5114036;28;20027;-64
2022/06/30 07:03:43;;;;;;;11.63;7.80;;;21.00;99.90;;;;;;5114196;28;20024;-64
2022/06/30 07:06:09;;;;;;;11.55;7.95;;;21.00;99.90;;;;;;5114073;28;20030;-63
2022/06/30 07:08:35;;;;;;;16.83;8.55;;;21.10;99.90;;;;;;5101994;28;20035;-64
2022/06/30 07:11:03;;;;;;;11.85;7.60;;;21.30;99.90;;;;;;5114048;28;20388;-64
2022/06/30 07:13:28;;;;;;;16.75;8.02;;;21.40;99.90;;;;;;5114254;28;20102;-64
2022/06/30 07:15:54;;;;;;;8.63;7.13;;;21.50;99.90;;;;;;5114455;28;20107;-64
2022/06/30 07:18:20;;;;;;;8.88;7.57;;;21.60;99.90;;;;;;5114442;28;20077;-64
2022/06/30 07:20:46;;;;;;;10.93;7.57;;;21.60;99.90;;;;;;5113995;28;20015;-64
2022/06/30 07:23:12;;;;;;;13.68;8.68;;;21.70;99.90;;;;;;5110381;28;20016;-64
2022/06/30 07:25:38;;;;;;;11.82;7.75;;;21.80;99.90;;;;;;5105987;28;20028;-64
2022/06/30 07:28:04;;;;;;;10.85;7.70;;;22.00;99.90;;;;;;5102882;28;20112;-64
2022/06/30 07:30:30;;;;;;;11.88;7.72;;;22.00;99.90;;;;;;5114260;28;20027;-64
2022/06/30 07:32:55;;;;;;;10.57;7.82;;;22.20;99.90;;;;;;5113789;28;20107;-64
2022/06/30 07:35:21;;;;;;;9.65;6.45;;;22.30;99.90;;;;;;5113561;28;20027;-64
2022/06/30 07:37:47;;;;;;;10.02;7.40;;;22.30;99.90;;;;;;5104669;28;20024;-63
2022/06/30 07:40:14;;;;;;;8.27;7.15;;;22.40;99.90;;;;;;5093370;28;20504;-64
2022/06/30 07:42:40;;;;;;;10.85;7.72;;;22.50;99.90;;;;;;5093206;28;20065;-64
2022/06/30 07:45:07;;;;;;;14.75;8.48;;;22.50;99.90;;;;;;5093506;28;20039;-64
2022/06/30 07:47:33;;;;;;;8.68;7.15;;;22.60;99.90;;;;;;5093404;28;20028;-64
2022/06/30 07:49:59;;;;;;;15.65;9.00;;;22.70;99.90;;;;;;5093183;28;20050;-64
2022/06/30 07:52:25;;;;;;;11.63;7.38;;;22.70;99.90;;;;;;5093083;28;20573;-64
2022/06/30 07:54:51;;;;;;;13.93;8.73;;;22.80;99.90;;;;;;5093161;28;20495;-64
2022/06/30 07:57:20;;;;;;;9.93;8.00;;;22.80;99.90;;;;;;5093293;28;20046;-64
2022/06/30 07:59:46;;;;;;;11.43;7.63;;;22.90;99.90;;;;;;5093232;28;20107;-64
2022/06/30 08:02:11;;;;;;;10.88;8.27;;;23.00;99.90;;;;;;5092780;28;20112;-64
2022/06/30 08:04:38;;;;;;;11.57;7.63;;;23.20;99.90;;;;;;5092966;28;20060;-64
2022/06/30 08:07:04;;;;;;;16.80;8.07;;;23.30;99.90;;;;;;5104873;28;20035;-64
2022/06/30 08:09:31;;;;;;;15.18;7.68;;;23.30;99.90;;;;;;5113472;28;20042;-64
2022/06/30 08:11:56;;;;;;;14.85;8.13;;;23.40;99.90;;;;;;5113072;28;20027;-64
2022/06/30 08:14:22;;;;;;;10.57;6.90;;;23.50;99.90;;;;;;5113212;28;20029;-64
2022/06/30 08:16:48;;;;;;;13.05;6.75;;;23.60;99.90;;;;;;5113144;28;20028;-64
2022/06/30 08:19:15;;;;;;;12.02;5.82;;;23.70;99.90;;;;;;5113208;28;20395;-64
2022/06/30 08:21:40;;;;;;;8.95;6.35;;;23.90;99.90;;;;;;5094412;28;20552;-64
2022/06/30 08:24:06;;;;;;;8.48;6.07;;;23.90;99.90;;;;;;5092723;28;20060;-64
2022/06/30 08:26:31;;;;;;;13.15;6.05;;;23.90;99.90;;;;;;5092735;28;20389;-64
2022/06/30 08:28:58;;;;;;;9.18;5.13;;;24.00;99.90;;;;;;5092683;28;20028;-65
2022/06/30 08:31:23;;;;;;;8.40;5.60;;;24.10;99.90;;;;;;5092250;28;20036;-64
2022/06/30 08:33:50;;;;;;;8.15;5.93;;;24.30;99.90;;;;;;5092522;28;20032;-65
2022/06/30 08:36:17;;;;;;;9.80;6.22;;;24.40;99.90;;;;;;5092338;28;20024;-64
2022/06/30 08:38:43;;;;;;;7.32;5.40;;;24.40;99.90;;;;;;5073348;28;20097;-64
2022/06/30 08:43:53;;;;;;;8.27;5.05;;;24.50;99.90;;;;;;5112900;28;20057;-64
2022/06/30 08:46:22;;;;;;;8.35;5.72;;;24.60;99.90;;;;;;5111952;28;20451;-64
2022/06/30 08:48:47;;;;;;;7.15;5.93;;;24.70;99.90;;;;;;5106947;28;20028;-64
2022/06/30 08:51:14;;;;;;;7.32;5.57;;;24.90;99.90;;;;;;5092057;28;20097;-64
2022/06/30 08:53:44;;;;;;;6.13;5.13;;;24.90;99.90;;;;;;5092072;28;20053;-64
2022/06/30 08:56:12;;;;;;;7.05;4.68;;;25.10;99.90;;;;;;5093204;28;20032;-64
2022/06/30 08:58:39;;;;;;;8.75;5.43;;;25.10;99.90;;;;;;5091993;28;20054;-64
2022/06/30 09:01:05;;;;;;;6.22;4.63;;;25.20;99.90;;;;;;5091998;28;20459;-64
2022/06/30 09:03:32;;;;;;;12.00;4.45;;;25.40;99.90;;;;;;5091688;28;20066;-64
2022/06/30 09:05:58;;;;;;;6.32;4.03;;;25.50;99.90;;;;;;5092080;28;20073;-64
2022/06/30 09:08:26;;;;;;;7.60;4.95;;;25.70;99.90;;;;;;5091708;28;20024;-63
2022/06/30 09:10:54;;;;;;;4.35;3.92;;;25.80;99.90;;;;;;5091801;28;20026;-64
2022/06/30 09:13:20;;;;;;;6.30;3.70;;;26.00;99.90;;;;;;5091428;28;20028;-65
2022/06/30 09:15:48;;;;;;;7.85;4.95;;;26.00;99.90;;;;;;5091952;28;20089;-64
2022/06/30 09:18:26;;;;;;;5.38;4.13;;;26.10;99.90;;;;;;5090866;28;20020;-64
2022/06/30 09:20:52;;;;;;;5.57;3.90;;;26.20;99.90;;;;;;5097498;28;20469;-65
2022/06/30 09:23:25;;;;;;;4.75;3.88;;;26.40;99.90;;;;;;5111795;28;20035;-65
2022/06/30 09:26:04;;;;;;;8.30;3.83;;;26.50;99.90;;;;;;5112071;28;20114;-64
2022/06/30 09:28:44;;;;;;;4.63;3.05;;;26.70;99.90;;;;;;5099088;28;20043;-65
2022/06/30 09:31:11;;;;;;;3.67;3.30;;;26.80;99.90;;;;;;5091639;28;20091;-64
2022/06/30 09:33:40;;;;;;;4.80;3.78;;;27.00;99.90;;;;;;5091409;28;20045;-64
2022/06/30 09:36:23;;;;;;;3.17;2.88;;;27.00;99.90;;;;;;5108612;28;20398;-64
2022/06/30 09:38:59;;;;;;;6.35;3.50;;;27.10;99.90;;;;;;5097482;28;20035;-64
2022/06/30 09:41:30;;;;;;;4.63;3.13;;;27.20;99.90;;;;;;5113250;22;20082;-57
2022/06/30 09:43:56;;;;;;;4.85;3.20;;;27.40;99.90;;;;;;5089863;28;20482;-58
2022/06/30 09:46:22;;;;;;;11.43;3.10;;;27.50;99.90;;;;;;5089641;28;20083;-56
2022/06/30 09:48:47;;;;;;;5.15;3.10;;;27.50;99.90;;;;;;5089672;28;20474;-57
2022/06/30 09:51:13;;;;;;;6.57;2.88;;;27.70;99.90;;;;;;5089350;28;20032;-60
2022/06/30 09:53:39;;;;;;;3.50;2.70;;;27.80;99.90;;;;;;5089884;28;20023;-59
2022/06/30 09:56:13;;;;;;;7.30;3.17;;;28.00;99.90;;;;;;5089999;28;20032;-58
2022/06/30 09:58:42;;;;;;;4.30;2.70;;;28.00;99.90;;;;;;5092637;28;20035;-59
2022/06/30 10:01:09;;;;;;;4.97;2.75;;;28.00;99.90;;;;;;5093890;28;20030;-59
2022/06/30 10:03:59;;;;;;;3.00;2.70;;;28.10;99.90;;;;;;5093866;28;20097;-59
2022/06/30 10:06:26;;;;;;;2.55;2.35;;;28.00;99.90;;;;;;5093777;28;20027;-59
2022/06/30 10:08:55;;;;;;;3.95;2.70;;;28.10;99.90;;;;;;5094038;28;20095;-58
2022/06/30 10:11:21;;;;;;;2.15;1.90;;;28.30;99.90;;;;;;5093748;28;20028;-59
2022/06/30 10:13:48;;;;;;;8.93;2.45;;;28.30;99.90;;;;;;5093743;28;20028;-56
2022/06/30 10:16:16;;;;;;;4.57;1.80;;;28.20;99.90;;;;;;5093609;28;20031;-59
2022/06/30 10:18:42;;;;;;;7.95;1.98;;;28.30;99.90;;;;;;5093636;28;20031;-58
2022/06/30 10:21:10;;;;;;;3.65;2.28;;;28.40;99.90;;;;;;5093727;28;20024;-58
2022/06/30 10:23:37;;;;;;;4.35;2.10;;;28.60;99.90;;;;;;5092696;28;20024;-59
2022/06/30 10:26:04;;;;;;;5.50;2.47;;;28.60;99.90;;;;;;5093882;28;20405;-58
2022/06/30 10:28:30;;;;;;;4.43;2.40;;;28.60;99.90;;;;;;5092728;28;20023;-57
2022/06/30 10:31:08;;;;;;;11.02;2.30;;;28.70;99.90;;;;;;5093474;28;20027;-58
2022/06/30 10:34:00;;;;;;;5.82;2.05;;;28.50;99.90;;;;;;5092886;28;20047;-59
2022/06/30 10:37:00;;;;;;;5.68;2.22;;;28.20;99.90;;;;;;5061564;28;20051;-58
2022/06/30 10:39:49;;;;;;;5.60;2.35;;;28.10;99.90;;;;;;5066565;28;20498;-58
2022/06/30 10:42:49;;;;;;;5.78;2.90;;;28.20;99.90;;;;;;5092885;28;20039;-59
2022/06/30 10:45:26;;;;;;;6.25;2.72;;;28.40;99.90;;;;;;5086406;28;20089;-58
2022/06/30 10:48:08;;;;;;;5.63;3.13;;;28.40;99.90;;;;;;5073345;28;20028;-59
2022/06/30 10:50:42;;;;;;;10.00;2.67;;;28.40;99.90;;;;;;5073044;28;20060;-60
2022/06/30 10:53:09;;;;;;;;;;;28.50;99.90;;;;;;5092676;28;20461;-61
2022/06/30 10:55:48;;;;;;;7.43;2.55;;;28.50;99.90;;;;;;5093027;28;19912;-60
2022/06/30 10:58:14;;;;;;;6.82;2.83;;;28.50;99.90;;;;;;5091926;28;20396;-60
2022/06/30 11:00:50;;;;;;;6.38;2.97;;;28.60;99.90;;;;;;5092974;28;20081;-59
2022/06/30 11:03:32;;;;;;;7.43;2.60;;;28.50;99.90;;;;;;5092623;28;20027;-59
2022/06/30 11:06:01;;;;;;;3.83;2.28;;;28.40;99.90;;;;;;5093530;28;20979;-58
2022/06/30 11:08:36;;;;;;;6.38;2.33;;;28.20;99.90;;;;;;5093485;28;20047;-60
2022/06/30 11:11:23;;;;;;;3.33;2.30;;;28.10;99.90;;;;;;5093952;28;20103;-60
2022/06/30 11:14:13;;;;;;;7.78;2.70;;;27.80;99.90;;;;;;5093825;28;20382;-60
2022/06/30 11:16:40;;;;;;;4.53;2.15;;;27.70;99.90;;;;;;5093897;28;20023;-60
2022/06/30 11:19:15;;;;;;;9.30;2.60;;;27.80;99.90;;;;;;5093381;28;20020;-58
2022/06/30 11:21:44;;;;;;;6.50;2.35;;;27.90;99.90;;;;;;5093518;28;20082;-59
2022/06/30 11:24:13;;;;;;;7.68;2.20;;;28.00;99.90;;;;;;5093623;28;20025;-59
2022/06/30 11:29:26;;;;;;;7.47;2.85;;;27.80;99.90;;;;;;5094029;28;20055;-59
2022/06/30 11:31:58;;;;;;;10.85;2.53;;;27.70;99.90;;;;;;5095983;28;20016;-60
2022/06/30 11:34:25;;;;;;;7.88;2.42;;;27.60;99.90;;;;;;5093697;28;20077;-59
2022/06/30 11:36:52;;;;;;;3.72;2.13;;;27.60;99.90;;;;;;5093272;28;20044;-57
2022/06/30 11:39:19;;;;;;;3.95;2.33;;;28.00;99.90;;;;;;5093580;28;20020;-60
2022/06/30 11:42:00;;;;;;;5.25;2.15;;;28.10;99.90;;;;;;5093142;28;20447;-60
2022/06/30 11:44:31;;;;;;;5.03;2.13;;;28.30;99.90;;;;;;5093447;28;20391;-60
2022/06/30 11:47:01;;;;;;;3.70;2.30;;;28.50;99.90;;;;;;5093488;28;20521;-60
2022/06/30 11:49:57;;;;;;;4.65;1.80;;;28.50;99.90;;;;;;5093736;28;20425;-59
2022/06/30 11:52:28;;;;;;;3.42;1.88;;;28.70;99.90;;;;;;5092944;28;20381;-61
2022/06/30 11:54:59;;;;;;;3.28;2.17;;;29.10;99.90;;;;;;5093323;28;20068;-61
2022/06/30 11:57:27;;;;;;;6.95;2.03;;;29.20;99.90;;;;;;5093313;28;20377;-59
2022/06/30 12:00:08;;;;;;;3.40;2.17;;;29.20;99.90;;;;;;5092980;28;20016;-61
2022/06/30 12:02:35;;;;;;;4.70;2.05;;;29.20;99.90;;;;;;5092723;28;20024;-60
2022/06/30 12:05:03;;;;;;;10.93;2.10;;;29.30;99.90;;;;;;5092932;28;20024;-60
2022/06/30 12:07:30;;;;;;;3.67;2.00;;;29.40;99.90;;;;;;5092557;28;20028;-60
2022/06/30 12:09:57;;;;;;;5.50;2.15;;;29.50;99.90;;;;;;5092956;28;20508;-58
2022/06/30 12:12:28;;;;;;;6.57;1.95;;;29.40;99.90;;;;;;5092663;28;20059;-60
2022/06/30 12:14:56;;;;;;;2.72;1.98;;;29.70;99.90;;;;;;5092761;28;20553;-61
2022/06/30 12:17:23;;;;;;;2.72;2.03;;;30.00;99.90;;;;;;5092990;28;20054;-60
2022/06/30 12:19:50;;;;;;;3.55;2.20;;;29.80;99.90;;;;;;5092956;28;20021;-60
2022/06/30 12:22:16;;;;;;;4.95;2.63;;;29.70;99.90;;;;;;5091246;28;20485;-61
2022/06/30 12:24:45;;;;;;;4.10;1.40;;;29.80;99.90;;;;;;5092633;28;20031;-60
2022/06/30 12:27:26;;;;;;;3.97;1.85;;;30.00;99.90;;;;;;5091759;28;20039;-60
2022/06/30 12:29:58;;;;;;;2.95;2.03;;;30.10;99.90;;;;;;5092327;28;20069;-61
2022/06/30 12:32:24;;;;;;;5.90;2.08;;;30.20;99.90;;;;;;5092317;28;20028;-60
2022/06/30 12:34:52;;;;;;;1.55;1.45;;;30.40;99.90;;;;;;5091173;28;20080;-60
2022/06/30 12:37:32;;;;;;;4.43;2.13;;;30.40;99.90;;;;;;5091581;28;20044;-59
2022/06/30 12:40:00;;;;;;;5.45;2.13;;;30.50;99.90;;;;;;5089073;28;20027;-59
2022/06/30 12:42:37;;;;;;;2.22;1.85;;;30.50;99.10;;;;;;5088864;28;20016;-60
2022/06/30 12:45:03;;;;;;;18.08;2.50;;;30.60;99.90;;;;;;5088524;28;20107;-60
2022/06/30 12:47:30;;;;;;;3.92;2.50;;;30.50;99.90;;;;;;5091015;28;20124;-61
2022/06/30 12:49:55;;;;;;;2.72;2.00;;;30.80;99.40;;;;;;5091755;28;20032;-61
2022/06/30 12:52:21;;;;;;;7.93;2.40;;;30.60;99.70;;;;;;5091457;28;20030;-59
2022/06/30 12:54:53;;;;;;;4.55;2.55;;;30.70;98.60;;;;;;5091428;28;20052;-59